Delray Beach, FL

12:12 PM EST on February 28, 2015 (GMT -0500)
J-Ball at Mizner Country Club | Change Station
CLOSE
Current Station
Personal Weather Station
Location: Delray Beach, FL
Elevation: 19 ft
Nearby Weather Stations

Elev 19 ft 26.43 °N, 80.18 °W | Updated 2 minutes ago

Overcast
Overcast
77.0 °F
Feels Like 78 °F
N
4.0
Wind Variable Wind from ENE

Today
High -- | Low -- °F
--% Chance of Precip.
Yesterday
High -- | Low -- °F
Precip. -- in
6:45 AM 6:21 PM
Waxing Gibbous, 78% visible
Pressure 30.26 in
Visibility 3.0 miles
Clouds Mostly Cloudy 1200 ft
Mostly Cloudy 1800 ft
Heat Index 78 °F
Dew Point 72 °F
Humidity 85%
Rainfall 0.00 in
Snow Depth Not available.
UV 6 out of 12
Pollen 6.10 out of 12
Air Quality Not available.
Flu Activity Not available.
SPECI KPMP 281700Z 08010G19KT 3SM -RA BR BKN012 BKN018 23/22 A3026 RMK AO2 LTG DSNT SE AND S P0000 T02330217

More Conditions Fewer Conditions

Pressure 30.26 in
Visibility 3.0 miles
Clouds Mostly Cloudy 1200 ft
Mostly Cloudy 1800 ft
Heat Index 78 °F
Dew Point 72 °F
Humidity 85%
Rainfall 0.00 in
Snow Depth Not available.
UV 6 out of 12
Pollen 6.10 out of 12
Air Quality Not available.
Flu Activity Not available.
SPECI KPMP 281700Z 08010G19KT 3SM -RA BR BKN012 BKN018 23/22 A3026 RMK AO2 LTG DSNT SE AND S P0000 T02330217

More Conditions Fewer Conditions

Nowcast | as of 10:12 am EST on February 28, 2015

Areas of light to moderate rain with embedded scattered showers and isolated thunderstorms will impact coastal and Metro sections of Broward County and northeast sections of Miami Dade through the next hour or two bringing periods of heavy downpours across affected communities. Minor street flooding in some areas particularly in southeastern Broward and northeastern Miami Dade is possible through this period. Gusty winds of 30-40 mph are also possible with the storms in southeast Broward and northeast Miami Dade capable of blowing around small lose objects.

×

10-Day Weather Forecast

Almanac

Astronomy

Feb. 28, 2015 Rise Set
Actual Time
Civil Twilight
Nautical Twilight
Astronomical Twilight
Moon
Length of Visible Light
Length of Day
Tomorrow will be .
, % of the Moon is Illuminated

Today's Extremes

State Highs State Lows

Community

WunderPhotos

Upload Photos

1,801,095 photos uploaded!

WunderBlogs® & News

Nearby

Air Quality

  Air Quality AQ Index Pollutant
Not available.

Snow Depth

Station Depth Elevation

Earthquake Activity

City Distance Mag. Time & Date
Minimum magnitude displayed is 2.5.

Coastal Water Temperatures

Place Temperature

Nearby Weather Stations